South Windham, Maine
Current Conditions -  °F | °C
As of 12:51 PM on Wednesday 26 Nov 2014 (Local Time) from KPWM Reporting Station
Heavy Snow Heavy Snow  
Wind Chill: 30°   Ceiling: 700
Heat Index: 34°   Visibility: 0.25mi
Dew Point: 33°   Wind: 5mph
Humidity: 96%   Direction: 20°NNE
Pressure: 30.19"   Gusts: NA
Location:  43.74°N, 70.42°W
Report Text: KPWM 261751Z 02004KT 1/4SM +SN FG VV007 01/01 A3019 RMK AO2 SLP224 P0014 60017 T00110006 10061 20011 56002
Loading
Personal Weather Stations






























Interactive Weather Map New forecast layout! Learn more

10-Day Weather Forecast

Advertisements
Track Severe Weather on mobile